Time;durP1;ratioP1;P1;durP2;ratioP2;P2;SDS_P1;SDS_P2;PMS_P1;PMS_P2;Temp;Humidity;BMP_temperature;BMP_pressure;BME280_temperature;BME280_humidity;BME280_pressure;Samples;Min_cycle;Max_cycle;Signal;HPM_P1;HPM_P2
2022/02/13 00:00:59;;;;;;;5.77;2.47;;;0.80;99.90;;;;;;4996880;28;20179;-91
2022/02/13 00:03:30;;;;;;;3.03;1.87;;;0.80;99.90;;;;;;4987950;28;20195;-92
2022/02/13 00:05:56;;;;;;;5.40;2.23;;;0.90;99.90;;;;;;4996728;28;20168;-91
2022/02/13 00:08:22;;;;;;;4.17;2.00;;;0.90;99.90;;;;;;4992336;28;20505;-92
2022/02/13 00:10:48;;;;;;;3.73;2.13;;;0.80;99.90;;;;;;4996372;28;20180;-92
2022/02/13 00:13:14;;;;;;;5.03;2.23;;;0.80;99.90;;;;;;4996801;28;20219;-91
2022/02/13 00:15:39;;;;;;;3.47;2.00;;;0.80;99.90;;;;;;4996685;28;20642;-91
2022/02/13 00:18:05;;;;;;;3.20;2.00;;;0.80;99.90;;;;;;4996264;28;20607;-92
2022/02/13 00:20:31;;;;;;;6.80;2.37;;;0.80;99.90;;;;;;4991397;28;20273;-92
2022/02/13 00:23:08;;;;;;;3.63;2.10;;;0.70;99.90;;;;;;4976680;28;20511;-93
2022/02/13 00:25:34;;;;;;;4.53;2.40;;;0.70;99.90;;;;;;4976689;28;20312;-92
2022/02/13 00:28:00;;;;;;;4.53;2.40;;;0.60;99.90;;;;;;4977669;28;20236;-91
2022/02/13 00:30:25;;;;;;;5.03;2.23;;;0.60;99.90;;;;;;4994527;28;20199;-91
2022/02/13 00:32:52;;;;;;;5.00;2.40;;;0.60;99.90;;;;;;4996063;28;20215;-92
2022/02/13 00:35:19;;;;;;;2.73;1.70;;;0.60;99.90;;;;;;4995091;28;20202;-92
2022/02/13 00:37:44;;;;;;;4.77;2.00;;;0.50;99.90;;;;;;4982879;28;20196;-92
2022/02/13 00:40:11;;;;;;;3.27;2.07;;;0.50;99.90;;;;;;4996144;28;20187;-91
2022/02/13 00:42:37;;;;;;;5.87;2.47;;;0.50;99.90;;;;;;4995844;28;20211;-92
2022/02/13 00:45:05;;;;;;;2.90;2.10;;;0.50;99.90;;;;;;4995708;28;20182;-92
2022/02/13 00:47:31;;;;;;;2.70;1.90;;;0.40;99.90;;;;;;4996104;28;20599;-92
2022/02/13 00:49:57;;;;;;;7.03;2.57;;;0.50;99.90;;;;;;4995665;28;20191;-91
2022/02/13 00:52:23;;;;;;;4.60;2.30;;;0.50;99.90;;;;;;4995528;28;20211;-91
2022/02/13 00:54:50;;;;;;;4.73;2.27;;;0.50;99.90;;;;;;4995334;28;20183;-93
2022/02/13 00:57:16;;;;;;;4.17;2.13;;;0.50;99.90;;;;;;4995266;28;20179;-92
2022/02/13 00:59:42;;;;;;;4.57;2.10;;;0.60;99.90;;;;;;4979830;28;20503;-92
2022/02/13 01:02:07;;;;;;;3.23;2.13;;;0.60;99.90;;;;;;4976145;28;20207;-92
2022/02/13 01:04:40;;;;;;;4.30;2.17;;;0.60;99.90;;;;;;4989673;28;20533;-92
2022/02/13 01:07:06;;;;;;;6.47;2.40;;;0.60;99.90;;;;;;4995105;28;20187;-93
2022/02/13 01:09:32;;;;;;;7.20;2.33;;;0.60;99.90;;;;;;4995292;28;20175;-91
2022/02/13 01:11:58;;;;;;;4.80;2.20;;;0.60;99.90;;;;;;4995094;28;20257;-92
2022/02/13 01:14:36;;;;;;;4.60;2.70;;;0.60;99.90;;;;;;4995034;28;20645;-92
2022/02/13 01:17:02;;;;;;;3.27;2.40;;;0.60;99.90;;;;;;4995065;28;20206;-92
2022/02/13 01:19:29;;;;;;;3.73;2.60;;;0.60;99.90;;;;;;4995921;28;20184;-92
2022/02/13 01:21:55;;;;;;;4.57;2.70;;;0.60;99.90;;;;;;4995092;28;20207;-92
2022/02/13 01:24:21;;;;;;;4.03;2.20;;;0.60;99.90;;;;;;4994913;28;20184;-94
2022/02/13 01:26:47;;;;;;;6.17;2.30;;;0.60;99.90;;;;;;4994649;28;20338;-92
2022/02/13 01:29:12;;;;;;;4.10;2.20;;;0.50;99.90;;;;;;4994997;28;20182;-91
2022/02/13 01:31:39;;;;;;;4.37;2.30;;;0.50;99.90;;;;;;4995049;28;20622;-92
2022/02/13 01:34:12;;;;;;;4.13;2.23;;;0.40;99.90;;;;;;4994805;28;20184;-92
2022/02/13 01:36:37;;;;;;;4.40;2.33;;;0.40;99.90;;;;;;4995056;28;20192;-92
2022/02/13 01:39:03;;;;;;;3.93;2.20;;;0.40;99.90;;;;;;4994421;28;20271;-91
2022/02/13 01:41:29;;;;;;;3.97;2.30;;;0.40;99.90;;;;;;4994816;28;20176;-91
2022/02/13 01:43:57;;;;;;;5.50;2.40;;;0.40;99.90;;;;;;4994848;28;20230;-92
2022/02/13 01:46:23;;;;;;;4.37;2.17;;;0.40;99.90;;;;;;4994718;28;20639;-92
2022/02/13 01:48:49;;;;;;;2.30;1.83;;;0.40;99.90;;;;;;4994706;28;20273;-92
2022/02/13 01:51:15;;;;;;;6.20;2.67;;;0.30;99.90;;;;;;4994811;28;20561;-91
2022/02/13 01:53:41;;;;;;;6.30;2.93;;;0.30;99.90;;;;;;4994785;28;20219;-93
2022/02/13 01:56:08;;;;;;;5.73;3.10;;;0.30;99.90;;;;;;4994505;28;20184;-92
2022/02/13 01:58:34;;;;;;;6.83;3.03;;;0.30;99.90;;;;;;4994606;28;20184;-92
2022/02/13 02:01:01;;;;;;;5.60;3.07;;;0.30;99.90;;;;;;4994913;28;20645;-92
2022/02/13 02:03:26;;;;;;;4.80;2.97;;;0.30;99.90;;;;;;4994657;28;20190;-92
2022/02/13 02:05:53;;;;;;;5.90;2.90;;;0.40;99.90;;;;;;4994627;28;20180;-93
2022/02/13 02:08:19;;;;;;;6.07;3.13;;;0.40;99.90;;;;;;4994503;28;20199;-92
2022/02/13 02:10:49;;;;;;;6.13;2.70;;;0.40;99.90;;;;;;4994492;28;20179;-92
2022/02/13 02:13:16;;;;;;;5.67;2.53;;;0.40;99.90;;;;;;4994510;28;20247;-92
2022/02/13 02:15:48;;;;;;;5.33;3.20;;;0.40;99.90;;;;;;4994532;28;20187;-93
2022/02/13 02:18:14;;;;;;;4.10;2.30;;;0.40;99.90;;;;;;4994711;28;20192;-93
2022/02/13 02:20:40;;;;;;;5.00;2.97;;;0.40;99.90;;;;;;4994138;28;20284;-93
2022/02/13 02:23:09;;;;;;;5.37;3.00;;;0.30;99.90;;;;;;4994785;28;20182;-92
2022/02/13 02:25:34;;;;;;;4.63;3.03;;;0.30;99.90;;;;;;4992888;28;20637;-92
2022/02/13 02:28:00;;;;;;;4.00;2.80;;;0.40;99.90;;;;;;4994195;28;20268;-91
2022/02/13 02:30:26;;;;;;;6.33;2.87;;;0.30;99.90;;;;;;4994498;28;20213;-92
2022/02/13 02:32:51;;;;;;;6.90;3.33;;;0.30;99.90;;;;;;4990686;28;20599;-92
2022/02/13 02:35:17;;;;;;;4.43;2.73;;;0.20;99.90;;;;;;4994268;28;20226;-91
2022/02/13 02:37:43;;;;;;;5.77;3.03;;;0.20;99.90;;;;;;4994172;28;20191;-91
2022/02/13 02:40:09;;;;;;;7.67;3.10;;;0.20;99.90;;;;;;4994864;28;20234;-92
2022/02/13 02:42:35;;;;;;;6.30;3.03;;;0.10;99.90;;;;;;4994204;28;20285;-92
2022/02/13 02:45:03;;;;;;;5.90;2.90;;;0.10;99.90;;;;;;4994353;28;20355;-92
2022/02/13 02:47:28;;;;;;;4.23;2.57;;;0.10;99.90;;;;;;4997972;28;20234;-92
2022/02/13 02:49:54;;;;;;;4.80;2.70;;;0.00;99.90;;;;;;4998098;28;20529;-92
2022/02/13 02:52:20;;;;;;;6.10;2.67;;;-0.10;99.90;;;;;;4997946;28;20302;-91
2022/02/13 02:54:46;;;;;;;4.77;2.30;;;-0.10;99.90;;;;;;4998114;28;20190;-91
2022/02/13 02:57:13;;;;;;;4.40;2.53;;;-0.20;99.90;;;;;;4997873;28;20185;-91
2022/02/13 02:59:39;;;;;;;4.07;2.40;;;-0.20;99.90;;;;;;5456775;22;20204;-92
2022/02/13 03:02:05;;;;;;;5.83;2.50;;;-0.30;99.90;;;;;;5002645;28;20671;-93
2022/02/13 03:04:31;;;;;;;4.83;2.40;;;-0.30;99.90;;;;;;5016701;28;20187;-92
2022/02/13 03:06:56;;;;;;;6.60;2.80;;;-0.30;99.90;;;;;;4997567;28;20281;-92
2022/02/13 03:09:22;;;;;;;7.20;2.40;;;-0.40;99.90;;;;;;4997667;28;20673;-93
2022/02/13 03:11:49;;;;;;;6.97;2.73;;;-0.40;99.90;;;;;;4997557;28;20190;-92
2022/02/13 03:14:15;;;;;;;4.93;2.33;;;-0.40;99.90;;;;;;5012129;28;20557;-93
2022/02/13 03:16:40;;;;;;;6.60;2.43;;;-0.50;99.90;;;;;;5018008;28;20270;-92
2022/02/13 03:19:06;;;;;;;8.53;2.53;;;-0.60;99.90;;;;;;5017072;28;20270;-92
2022/02/13 03:21:39;;;;;;;5.67;2.70;;;-0.60;99.90;;;;;;5008025;28;20195;-92
2022/02/13 03:24:07;;;;;;;6.67;3.33;;;-0.50;99.90;;;;;;5010716;28;20242;-93
2022/02/13 03:26:33;;;;;;;3.80;2.30;;;-0.70;99.90;;;;;;5017916;28;20175;-93
2022/02/13 03:28:59;;;;;;;5.10;2.67;;;-0.80;99.90;;;;;;5016823;28;20188;-93
2022/02/13 03:31:29;;;;;;;4.43;2.33;;;-0.80;99.90;;;;;;5016283;28;20270;-93
2022/02/13 03:33:55;;;;;;;5.97;2.90;;;-0.80;99.90;;;;;;5000516;28;20241;-91
2022/02/13 03:36:21;;;;;;;4.23;2.27;;;-0.80;99.90;;;;;;5016595;28;20701;-93
2022/02/13 03:38:47;;;;;;;8.63;3.07;;;-0.70;99.90;;;;;;5006009;28;20221;-92
2022/02/13 03:41:21;;;;;;;3.00;2.50;;;-0.70;99.90;;;;;;4997169;28;20204;-93
2022/02/13 03:43:47;;;;;;;5.40;2.60;;;-0.70;99.90;;;;;;4997041;28;20190;-93
2022/02/13 03:46:12;;;;;;;4.90;2.40;;;-0.60;99.90;;;;;;5012334;28;20255;-93
2022/02/13 03:48:38;;;;;;;4.53;2.17;;;-0.60;99.90;;;;;;5016329;28;20192;-93
2022/02/13 03:51:04;;;;;;;5.43;2.60;;;-0.60;99.90;;;;;;5016384;28;20195;-95
2022/02/13 03:53:32;;;;;;;6.60;3.57;;;-0.70;99.90;;;;;;5016436;28;20268;-93
2022/02/13 03:55:58;;;;;;;4.87;2.70;;;-0.60;99.90;;;;;;5005891;28;20175;-93
2022/02/13 03:58:24;;;;;;;6.43;3.13;;;-0.60;99.90;;;;;;5013892;28;20211;-93
2022/02/13 04:00:50;;;;;;;4.37;3.07;;;-0.60;99.90;;;;;;5004640;28;20298;-94
2022/02/13 04:03:17;;;;;;;4.87;3.43;;;-0.60;99.90;;;;;;4996749;28;20650;-93
2022/02/13 04:05:43;;;;;;;5.97;3.37;;;-0.60;99.90;;;;;;5005073;28;20633;-93
2022/02/13 04:08:09;;;;;;;7.80;3.53;;;-0.60;99.90;;;;;;5016287;28;20183;-94
2022/02/13 04:10:34;;;;;;;6.53;3.33;;;-0.50;99.90;;;;;;5009331;28;20171;-94
2022/02/13 04:13:13;;;;;;;8.47;3.83;;;-0.50;99.90;;;;;;4993872;28;20647;-93
2022/02/13 04:15:39;;;;;;;5.07;3.40;;;-0.50;99.90;;;;;;4984222;28;20179;-93
2022/02/13 04:18:13;;;;;;;6.57;3.50;;;-0.50;99.90;;;;;;4977157;28;20264;-93
2022/02/13 04:20:39;;;;;;;5.63;3.80;;;-0.50;99.90;;;;;;5015724;28;20285;-93
2022/02/13 04:23:12;;;;;;;6.00;3.87;;;-0.40;99.90;;;;;;5017118;28;20202;-94
2022/02/13 04:25:38;;;;;;;6.23;3.40;;;-0.40;99.90;;;;;;5015165;28;20167;-93
2022/02/13 04:28:04;;;;;;;13.00;4.10;;;-0.40;99.90;;;;;;5016103;28;20498;-93
2022/02/13 04:30:30;;;;;;;10.27;4.07;;;-0.30;99.90;;;;;;5005942;28;20193;-94
2022/02/13 04:33:01;;;;;;;10.73;4.43;;;-0.30;99.90;;;;;;4976591;28;20236;-94
2022/02/13 04:35:29;;;;;;;9.27;4.10;;;-0.40;99.90;;;;;;4976620;28;20180;-95
2022/02/13 04:37:56;;;;;;;7.93;4.37;;;-0.40;99.90;;;;;;4976564;28;20187;-94
2022/02/13 04:40:23;;;;;;;10.83;4.13;;;-0.40;99.90;;;;;;4977356;28;20184;-94
2022/02/13 04:42:53;;;;;;;8.50;4.93;;;-0.40;99.90;;;;;;5015381;28;20171;-94
2022/02/13 04:45:18;;;;;;;8.37;4.47;;;-0.30;99.90;;;;;;5016320;28;20198;-94
2022/02/13 04:47:44;;;;;;;11.27;4.40;;;-0.20;99.90;;;;;;4995998;28;20183;-94
2022/02/13 04:50:10;;;;;;;6.17;3.90;;;-0.20;99.90;;;;;;4997677;28;20214;-93
2022/02/13 04:52:36;;;;;;;11.87;4.27;;;-0.20;99.90;;;;;;4997523;28;20247;-94
2022/02/13 04:55:03;;;;;;;6.73;4.20;;;-0.30;99.90;;;;;;4995506;28;20275;-94
2022/02/13 04:57:29;;;;;;;8.73;4.90;;;-0.20;99.90;;;;;;4995738;28;20181;-93
2022/02/13 04:59:55;;;;;;;10.87;4.40;;;-0.30;99.90;;;;;;4995228;28;20235;-93
2022/02/13 05:02:21;;;;;;;10.53;4.73;;;-0.20;99.90;;;;;;4995681;28;20196;-94
2022/02/13 05:04:47;;;;;;;7.07;4.03;;;-0.20;99.90;;;;;;4995503;28;20679;-94
2022/02/13 05:07:13;;;;;;;7.80;4.13;;;-0.10;99.90;;;;;;4995273;28;20237;-94
2022/02/13 05:09:38;;;;;;;7.33;4.20;;;-0.10;99.90;;;;;;4994589;28;20184;-94
2022/02/13 05:12:10;;;;;;;11.70;4.53;;;-0.10;99.90;;;;;;4994986;28;20258;-94
2022/02/13 05:14:36;;;;;;;6.90;4.20;;;-0.10;99.90;;;;;;4995290;28;20266;-94
2022/02/13 05:17:02;;;;;;;7.23;4.70;;;-0.10;99.90;;;;;;4997310;28;20253;-94
2022/02/13 05:19:28;;;;;;;8.33;4.47;;;-0.10;99.90;;;;;;4995247;28;20191;-94
2022/02/13 05:21:57;;;;;;;6.97;4.33;;;-0.10;99.90;;;;;;4995230;28;20180;-94
2022/02/13 05:24:26;;;;;;;7.53;4.50;;;-0.10;99.90;;;;;;4995627;28;20642;-94
2022/02/13 05:26:52;;;;;;;7.63;4.50;;;-0.10;99.90;;;;;;4995181;28;20576;-93
2022/02/13 05:29:17;;;;;;;7.23;3.93;;;-0.10;99.90;;;;;;4995208;28;20187;-96
2022/02/13 05:31:46;;;;;;;9.27;4.30;;;-0.10;99.90;;;;;;5012573;28;20186;-94
2022/02/13 05:34:15;;;;;;;6.63;3.90;;;0.00;99.90;;;;;;5001899;28;20203;-94
2022/02/13 05:36:43;;;;;;;8.60;4.27;;;0.00;99.90;;;;;;4994899;28;20210;-93
2022/02/13 05:39:09;;;;;;;6.23;4.10;;;0.00;99.90;;;;;;4995238;28;20271;-93
2022/02/13 05:41:34;;;;;;;7.70;4.20;;;-0.10;99.90;;;;;;4994861;28;20226;-94
2022/02/13 05:44:00;;;;;;;5.97;4.13;;;-0.20;99.90;;;;;;4994988;28;20522;-94
2022/02/13 05:46:26;;;;;;;9.90;4.70;;;-0.30;99.90;;;;;;4994835;28;20550;-93
2022/02/13 05:48:52;;;;;;;9.10;4.07;;;-0.30;99.90;;;;;;4995034;28;20609;-94
2022/02/13 05:51:18;;;;;;;6.00;4.33;;;-0.30;99.90;;;;;;4994935;28;20280;-93
2022/02/13 05:53:45;;;;;;;6.93;4.10;;;-0.30;99.90;;;;;;4994888;28;20305;-94
2022/02/13 05:56:10;;;;;;;8.70;4.03;;;-0.30;99.90;;;;;;4994786;28;20248;-93
2022/02/13 05:58:39;;;;;;;8.90;4.00;;;-0.30;99.90;;;;;;5009421;28;20214;-94
2022/02/13 06:01:06;;;;;;;6.03;3.63;;;-0.30;99.90;;;;;;4994345;28;20242;-94
2022/02/13 06:03:33;;;;;;;6.90;3.80;;;-0.30;99.90;;;;;;4998118;28;20509;-94
2022/02/13 06:05:58;;;;;;;7.83;4.00;;;-0.20;99.90;;;;;;5013965;28;20175;-94
2022/02/13 06:08:24;;;;;;;7.47;3.93;;;-0.20;99.90;;;;;;4998273;28;20580;-94
2022/02/13 06:10:50;;;;;;;5.27;3.60;;;-0.10;99.90;;;;;;4994998;28;20183;-95
2022/02/13 06:13:35;;;;;;;7.30;4.07;;;-0.20;99.90;;;;;;4994792;28;20241;-96
2022/02/13 06:16:01;;;;;;;8.73;4.37;;;-0.30;99.90;;;;;;4988745;28;20525;-94
2022/02/13 06:18:30;;;;;;;6.77;4.03;;;-0.30;99.90;;;;;;5012077;28;20195;-95
2022/02/13 06:20:56;;;;;;;5.90;3.70;;;-0.30;99.90;;;;;;4995740;28;20186;-94
2022/02/13 06:23:30;;;;;;;6.13;4.30;;;-0.30;99.90;;;;;;4998531;28;20649;-95
2022/02/13 06:25:57;;;;;;;6.10;3.70;;;-0.30;99.90;;;;;;4998270;28;20623;-95
2022/02/13 06:28:22;;;;;;;5.53;3.60;;;-0.40;99.90;;;;;;4998347;28;20191;-95
2022/02/13 06:30:48;;;;;;;7.50;3.93;;;-0.40;99.90;;;;;;4998416;28;20677;-95
2022/02/13 06:33:21;;;;;;;7.27;3.93;;;-0.40;99.90;;;;;;4998342;28;20218;-94
2022/02/13 06:35:47;;;;;;;7.93;4.23;;;-0.40;99.90;;;;;;4998407;28;20260;-94
2022/02/13 06:38:14;;;;;;;6.83;4.03;;;-0.40;99.90;;;;;;4998386;28;20192;-96
2022/02/13 06:40:42;;;;;;;5.30;3.70;;;-0.30;99.90;;;;;;5016737;28;20314;-95
2022/02/13 06:43:21;;;;;;;4.40;3.33;;;-0.30;99.90;;;;;;5017841;28;20186;-95
2022/02/13 06:45:46;;;;;;;7.23;4.10;;;-0.40;99.90;;;;;;5017540;28;20183;-95
2022/02/13 06:48:12;;;;;;;6.33;3.83;;;-0.40;99.90;;;;;;5017818;28;20616;-95
2022/02/13 06:50:38;;;;;;;7.27;3.70;;;-0.30;99.90;;;;;;5017617;28;20179;-95
2022/02/13 06:53:05;;;;;;;6.07;3.90;;;-0.40;99.90;;;;;;5017721;28;20207;-95
2022/02/13 06:55:31;;;;;;;5.67;4.03;;;-0.40;99.90;;;;;;5017631;28;20255;-95
2022/02/13 06:57:57;;;;;;;7.63;3.47;;;-0.50;99.90;;;;;;5017468;28;20186;-94
2022/02/13 07:00:23;;;;;;;5.93;4.03;;;-0.50;99.90;;;;;;5010173;28;20232;-95
2022/02/13 07:02:49;;;;;;;8.37;4.00;;;-0.40;99.90;;;;;;4998109;28;20182;-95
2022/02/13 07:05:19;;;;;;;8.70;4.30;;;-0.40;99.90;;;;;;5004267;28;20586;-95
2022/02/13 07:07:45;;;;;;;5.73;3.70;;;-0.50;99.90;;;;;;4997809;28;20239;-95
2022/02/13 07:10:12;;;;;;;9.53;4.03;;;-0.50;99.90;;;;;;4998476;28;20186;-95
2022/02/13 07:12:39;;;;;;;7.70;4.23;;;-0.50;99.90;;;;;;4997591;28;20260;-95
2022/02/13 07:15:16;;;;;;;8.23;4.17;;;-0.60;99.90;;;;;;5011211;28;20183;-94
2022/02/13 07:17:43;;;;;;;7.60;4.43;;;-0.50;99.90;;;;;;5017056;28;20190;-95
2022/02/13 07:20:09;;;;;;;8.03;4.33;;;-0.60;99.90;;;;;;5016693;28;20253;-95
2022/02/13 07:22:35;;;;;;;5.83;3.60;;;-0.50;99.90;;;;;;5017386;28;20692;-95
2022/02/13 07:25:08;;;;;;;6.63;4.13;;;-0.50;99.90;;;;;;5016914;28;20189;-95
2022/02/13 07:27:35;;;;;;;7.00;3.80;;;-0.60;99.90;;;;;;5017030;28;20168;-94
2022/02/13 07:30:05;;;;;;;6.30;4.20;;;-0.60;99.90;;;;;;5012698;28;20187;-95
2022/02/13 07:32:32;;;;;;;8.90;3.70;;;-0.60;99.90;;;;;;4995833;28;20212;-95
2022/02/13 07:34:57;;;;;;;9.43;4.20;;;-0.60;99.90;;;;;;4997286;28;20216;-92
2022/02/13 07:37:24;;;;;;;12.03;4.60;;;-0.60;99.90;;;;;;4997115;28;20214;-94
2022/02/13 07:39:50;;;;;;;11.10;4.57;;;-0.60;99.90;;;;;;5005245;28;20629;-94
2022/02/13 07:42:16;;;;;;;7.53;4.40;;;-0.60;99.90;;;;;;5016772;28;20529;-95
2022/02/13 07:44:46;;;;;;;6.33;3.93;;;-0.60;99.90;;;;;;5016616;28;20185;-93
2022/02/13 07:47:12;;;;;;;8.50;4.20;;;-0.50;99.90;;;;;;5016204;28;20230;-94
2022/02/13 07:49:38;;;;;;;7.80;4.13;;;-0.50;99.90;;;;;;5016533;28;20179;-95
2022/02/13 07:52:05;;;;;;;8.30;4.63;;;-0.50;99.90;;;;;;5016401;28;20578;-95
2022/02/13 07:54:32;;;;;;;11.63;4.97;;;-0.50;99.90;;;;;;5016543;28;20176;-94
2022/02/13 07:56:57;;;;;;;9.07;4.73;;;-0.50;99.90;;;;;;5016301;28;20171;-94
2022/02/13 07:59:23;;;;;;;9.43;5.00;;;-0.50;99.90;;;;;;5016191;28;20270;-95
2022/02/13 08:01:49;;;;;;;9.77;5.00;;;-0.40;99.90;;;;;;4997266;28;20227;-94
2022/02/13 08:04:27;;;;;;;7.77;5.10;;;-0.30;99.90;;;;;;4996575;28;20277;-95
2022/02/13 08:06:53;;;;;;;10.27;5.13;;;-0.30;99.90;;;;;;4996711;28;20578;-95
2022/02/13 08:09:18;;;;;;;9.23;4.80;;;-0.20;99.90;;;;;;5003132;28;20206;-95
2022/02/13 08:11:44;;;;;;;8.90;4.67;;;-0.10;99.90;;;;;;5015950;28;20180;-95
2022/02/13 08:14:21;;;;;;;9.00;5.00;;;0.10;99.90;;;;;;5011663;28;20208;-94
2022/02/13 08:16:47;;;;;;;7.07;4.53;;;0.20;99.90;;;;;;4995950;28;20326;-95
2022/02/13 08:19:13;;;;;;;6.87;4.77;;;0.40;99.90;;;;;;5015703;28;20222;-95
2022/02/13 08:21:38;;;;;;;12.37;5.20;;;0.50;99.90;;;;;;5016001;28;20225;-95
2022/02/13 08:24:10;;;;;;;7.70;4.77;;;0.70;99.90;;;;;;5015779;28;20175;-95
2022/02/13 08:26:36;;;;;;;7.33;4.43;;;0.80;99.90;;;;;;5015751;28;20625;-94
2022/02/13 08:29:02;;;;;;;8.03;4.83;;;1.00;99.90;;;;;;5015800;28;20182;-94
2022/02/13 08:31:28;;;;;;;8.90;4.53;;;1.10;99.90;;;;;;4999555;28;20188;-93
2022/02/13 08:33:53;;;;;;;9.23;4.80;;;1.20;99.90;;;;;;4995934;28;20222;-95
2022/02/13 08:36:26;;;;;;;8.43;4.57;;;1.30;99.90;;;;;;5003960;28;20178;-95
2022/02/13 08:38:52;;;;;;;6.40;4.50;;;1.40;99.90;;;;;;5015709;28;20212;-94
2022/02/13 08:41:18;;;;;;;6.93;3.97;;;1.50;99.90;;;;;;5015372;28;20181;-93
2022/02/13 08:43:44;;;;;;;9.03;4.50;;;1.60;99.90;;;;;;5013176;28;20212;-94
2022/02/13 08:46:14;;;;;;;6.80;4.50;;;1.70;99.90;;;;;;4996919;28;20189;-93
2022/02/13 08:48:42;;;;;;;7.73;4.40;;;1.80;99.90;;;;;;5006417;28;20235;-94
2022/02/13 08:51:07;;;;;;;8.70;4.37;;;1.90;99.90;;;;;;4995861;28;20175;-95
2022/02/13 08:53:33;;;;;;;7.43;4.17;;;1.90;99.90;;;;;;4995931;28;20210;-94
2022/02/13 08:56:18;;;;;;;8.00;4.17;;;2.00;99.90;;;;;;4995658;28;20175;-95
2022/02/13 08:58:43;;;;;;;6.37;4.40;;;2.10;99.90;;;;;;4996166;28;20192;-95
2022/02/13 09:01:09;;;;;;;6.50;4.00;;;2.20;99.90;;;;;;5008766;28;20221;-96
2022/02/13 09:03:35;;;;;;;9.03;4.53;;;2.30;99.90;;;;;;5015292;28;20309;-95
2022/02/13 09:06:02;;;;;;;6.33;4.23;;;2.30;99.90;;;;;;5015102;28;20191;-94
2022/02/13 09:08:28;;;;;;;8.43;4.60;;;2.40;99.90;;;;;;5015335;28;20533;-95
2022/02/13 09:10:54;;;;;;;7.87;4.33;;;2.40;99.90;;;;;;5015285;28;20616;-95
2022/02/13 09:13:19;;;;;;;7.90;4.47;;;2.50;99.90;;;;;;5015178;28;20253;-96
2022/02/13 09:15:47;;;;;;;10.07;4.30;;;2.60;99.90;;;;;;5015840;28;20185;-95
2022/02/13 09:18:14;;;;;;;9.60;4.90;;;2.60;99.90;;;;;;5015267;28;20229;-96
2022/02/13 09:20:44;;;;;;;6.70;4.50;;;2.70;99.90;;;;;;5015192;28;20183;-94
2022/02/13 09:23:17;;;;;;;8.30;4.40;;;2.70;99.90;;;;;;5015690;28;20177;-96
2022/02/13 09:25:54;;;;;;;9.50;4.70;;;2.80;99.90;;;;;;5014790;28;20175;-95
2022/02/13 09:28:23;;;;;;;9.67;4.30;;;2.80;99.90;;;;;;5012954;28;20175;-96
2022/02/13 09:30:50;;;;;;;10.20;4.33;;;2.80;99.90;;;;;;5014536;28;20179;-96
2022/02/13 09:33:17;;;;;;;9.27;4.23;;;2.80;99.90;;;;;;4995228;28;20218;-95
2022/02/13 09:35:52;;;;;;;7.47;4.50;;;2.90;99.90;;;;;;4995024;28;20191;-95
2022/02/13 09:38:17;;;;;;;7.50;3.87;;;2.90;99.90;;;;;;4995503;28;20518;-95
2022/02/13 09:40:47;;;;;;;7.83;4.43;;;3.00;99.90;;;;;;4994852;28;20184;-94
2022/02/13 09:43:15;;;;;;;7.00;4.17;;;3.00;99.90;;;;;;5012888;28;20240;-95
2022/02/13 09:45:53;;;;;;;9.83;4.40;;;3.00;99.90;;;;;;5014491;28;20183;-94
2022/02/13 09:48:21;;;;;;;8.47;4.20;;;3.00;99.90;;;;;;5015052;28;20183;-95
2022/02/13 09:50:47;;;;;;;8.03;4.20;;;3.10;99.90;;;;;;5014881;28;20179;-95
2022/02/13 09:53:15;;;;;;;6.73;3.77;;;3.10;99.90;;;;;;5011969;28;20199;-96
2022/02/13 09:55:49;;;;;;;7.47;4.63;;;3.20;99.90;;;;;;4995965;28;20171;-94
2022/02/13 09:58:15;;;;;;;7.83;4.27;;;3.30;99.90;;;;;;4984958;28;20265;-94
2022/02/13 10:01:06;;;;;;;6.53;4.50;;;3.40;99.90;;;;;;4975818;28;20252;-95
2022/02/13 10:03:41;;;;;;;8.00;3.67;;;3.40;99.90;;;;;;4979670;28;20184;-94
2022/02/13 10:06:44;;;;;;;4.90;3.63;;;3.50;99.90;;;;;;4975549;28;20259;-95
2022/02/13 10:09:11;;;;;;;7.10;4.00;;;3.50;99.90;;;;;;4976662;28;20181;-96
2022/02/13 10:11:39;;;;;;;9.87;4.97;;;3.70;99.90;;;;;;4977872;28;20595;-96
2022/02/13 10:14:12;;;;;;;7.30;4.17;;;3.80;99.90;;;;;;4996620;28;20207;-96
2022/02/13 10:16:45;;;;;;;7.23;4.27;;;3.80;99.90;;;;;;4998868;28;20183;-96
2022/02/13 10:19:16;;;;;;;12.83;4.43;;;3.80;99.90;;;;;;5001006;28;20204;-96
2022/02/13 10:21:57;;;;;;;7.23;4.17;;;3.90;99.90;;;;;;4999230;28;20263;-96
2022/02/13 10:24:35;;;;;;;6.23;3.87;;;3.90;99.90;;;;;;4996910;28;20686;-96
2022/02/13 10:27:05;;;;;;;7.83;4.37;;;4.00;99.90;;;;;;4998283;28;20183;-95
2022/02/13 10:29:35;;;;;;;11.67;4.60;;;4.10;99.90;;;;;;4996285;28;20388;-95
2022/02/13 10:32:30;;;;;;;10.93;4.27;;;4.20;99.90;;;;;;4979746;28;20188;-96
2022/02/13 10:35:00;;;;;;;4.67;3.60;;;4.30;99.90;;;;;;4995615;28;20180;-94
2022/02/13 10:38:01;;;;;;;12.10;4.33;;;4.30;99.90;;;;;;5019688;28;20184;-95
2022/02/13 10:40:29;;;;;;;6.67;4.17;;;4.40;99.90;;;;;;4990121;28;20235;-96
2022/02/13 10:43:09;;;;;;;6.87;3.70;;;4.40;99.90;;;;;;4995956;28;20180;-96
2022/02/13 10:45:40;;;;;;;8.00;4.40;;;4.50;99.90;;;;;;4991594;28;20172;-95
2022/02/13 10:48:10;;;;;;;8.43;3.60;;;4.60;99.90;;;;;;4981085;28;20623;-95
2022/02/13 10:50:43;;;;;;;10.27;4.27;;;4.50;99.90;;;;;;5002783;28;20180;-95
2022/02/13 10:53:11;;;;;;;7.00;4.27;;;4.60;99.90;;;;;;5019188;28;20215;-95
2022/02/13 10:55:43;;;;;;;6.83;3.90;;;4.70;99.90;;;;;;5003714;28;20187;-95
2022/02/13 10:58:09;;;;;;;7.17;4.13;;;4.70;99.90;;;;;;4996945;28;20633;-96
2022/02/13 11:00:37;;;;;;;7.13;4.20;;;4.80;99.90;;;;;;4992411;28;20247;-95
2022/02/13 11:03:05;;;;;;;7.17;3.87;;;4.90;99.90;;;;;;5000265;28;20219;-96
2022/02/13 11:05:32;;;;;;;9.20;4.47;;;5.10;99.90;;;;;;4999170;28;20176;-96
2022/02/13 11:08:08;;;;;;;9.83;4.63;;;5.20;99.90;;;;;;5003447;28;20196;-96
2022/02/13 11:10:40;;;;;;;9.73;4.87;;;5.30;99.90;;;;;;5003472;28;20175;-95
2022/02/13 11:13:09;;;;;;;11.50;4.23;;;5.40;99.90;;;;;;5006946;28;20290;-95
2022/02/13 11:15:42;;;;;;;13.17;4.30;;;5.40;99.90;;;;;;5006287;28;20203;-96
2022/02/13 11:18:14;;;;;;;12.60;4.30;;;5.50;99.90;;;;;;5007702;28;20190;-95
2022/02/13 11:20:43;;;;;;;7.80;4.00;;;5.70;99.90;;;;;;5007921;28;20317;-94
2022/02/13 11:23:49;;;;;;;7.90;4.10;;;5.70;99.90;;;;;;5006667;28;20263;-94
2022/02/13 11:26:32;;;;;;;6.20;3.80;;;5.70;99.90;;;;;;4979382;28;20274;-94
2022/02/13 11:29:00;;;;;;;9.73;4.10;;;5.80;99.90;;;;;;4988711;28;20173;-95
2022/02/13 11:31:54;;;;;;;9.90;4.03;;;5.90;99.90;;;;;;5013350;28;20183;-93
2022/02/13 11:34:30;;;;;;;8.20;4.13;;;5.90;99.90;;;;;;5027564;28;20524;-94
2022/02/13 11:37:09;;;;;;;12.53;3.33;;;5.70;99.90;;;;;;5012626;28;20172;-95
2022/02/13 19:01:43;;;;;;;5.80;3.50;;;5.40;99.90;;;;;;5014691;22;20251;-95
2022/02/13 19:04:11;;;;;;;6.47;3.70;;;5.30;99.90;;;;;;5023296;28;20186;-95
2022/02/13 19:06:37;;;;;;;8.47;4.00;;;5.30;99.90;;;;;;5021200;28;20230;-95
2022/02/13 19:09:06;;;;;;;7.67;3.80;;;5.20;99.90;;;;;;5021589;28;20191;-96
2022/02/13 19:11:39;;;;;;;7.20;3.80;;;5.20;99.90;;;;;;5021719;28;20214;-95
2022/02/13 19:14:05;;;;;;;8.37;3.93;;;5.20;99.90;;;;;;5001265;28;20211;-96
2022/02/13 19:16:32;;;;;;;6.43;3.60;;;5.20;99.90;;;;;;5002120;28;20268;-95
2022/02/13 19:18:58;;;;;;;7.83;3.93;;;5.20;99.90;;;;;;4997858;28;20227;-96
2022/02/13 19:21:28;;;;;;;7.20;3.50;;;5.10;99.90;;;;;;4999167;28;20184;-95
2022/02/13 19:23:56;;;;;;;8.67;3.90;;;5.10;99.90;;;;;;5001909;28;20172;-95
2022/02/13 19:29:10;;;;;;;6.23;3.50;;;5.20;99.90;;;;;;5002350;28;20175;-95
2022/02/13 19:31:43;;;;;;;6.67;3.90;;;5.20;99.90;;;;;;5001428;28;20175;-95
2022/02/13 19:34:09;;;;;;;12.60;3.80;;;5.20;99.90;;;;;;5000777;28;20211;-95
2022/02/13 19:36:35;;;;;;;11.27;4.10;;;5.20;99.90;;;;;;5002759;28;20187;-95
2022/02/13 19:39:03;;;;;;;9.13;3.80;;;5.20;99.90;;;;;;5019777;28;20194;-96
2022/02/13 19:41:39;;;;;;;7.17;3.70;;;5.30;99.90;;;;;;5019891;28;20179;-95
2022/02/13 19:44:05;;;;;;;11.10;4.00;;;5.30;99.90;;;;;;5020298;28;20178;-95
2022/02/13 19:46:31;;;;;;;10.30;4.67;;;5.30;99.90;;;;;;5020248;28;20199;-96
2022/02/13 19:48:57;;;;;;;8.60;4.33;;;5.30;99.90;;;;;;5020272;28;20175;-96
2022/02/13 19:51:28;;;;;;;15.60;4.77;;;5.30;99.90;;;;;;5019778;28;20214;-96
2022/02/13 19:53:56;;;;;;;9.37;4.17;;;5.40;99.90;;;;;;5019261;28;20235;-95
2022/02/13 19:56:22;;;;;;;11.20;4.23;;;5.40;99.90;;;;;;5018200;28;20286;-95
2022/02/13 19:58:48;;;;;;;7.27;4.10;;;5.30;99.90;;;;;;5016641;28;20203;-96
2022/02/13 20:01:14;;;;;;;7.00;4.53;;;5.40;99.90;;;;;;5016816;28;20624;-95
2022/02/13 20:03:40;;;;;;;5.37;3.77;;;5.30;99.90;;;;;;5016595;28;20563;-95
2022/02/13 20:06:06;;;;;;;8.83;4.03;;;5.20;99.90;;;;;;5001168;28;20183;-95
2022/02/13 20:08:33;;;;;;;6.90;3.87;;;5.20;99.90;;;;;;5015995;28;20179;-95
2022/02/13 20:10:58;;;;;;;8.57;4.00;;;5.10;99.90;;;;;;5015510;28;20194;-95
2022/02/13 20:13:24;;;;;;;7.90;4.20;;;5.00;99.90;;;;;;5013974;28;20207;-94
2022/02/13 20:15:50;;;;;;;10.17;4.13;;;4.90;99.90;;;;;;5015195;28;20183;-95
2022/02/13 20:18:18;;;;;;;8.40;4.00;;;4.90;99.90;;;;;;5009919;28;20278;-95
2022/02/13 20:20:43;;;;;;;7.70;4.13;;;4.90;99.90;;;;;;5015402;28;20692;-95
2022/02/13 20:23:09;;;;;;;7.90;4.57;;;4.90;99.90;;;;;;5015410;28;20187;-96